createdAt,value
2022-10-31T00:00:58.696Z,13.14
2022-10-31T00:01:55.736Z,13.14
2022-10-31T00:02:55.611Z,13.14
2022-10-31T00:03:56.056Z,13.13
2022-10-31T00:04:55.780Z,13.12
2022-10-31T00:05:55.661Z,13.11
2022-10-31T00:06:55.712Z,13.13
2022-10-31T00:07:55.677Z,13.12
2022-10-31T00:08:55.938Z,13.08
2022-10-31T00:09:55.674Z,13.04
2022-10-31T00:10:55.601Z,13.01
2022-10-31T00:11:58.877Z,13.03
2022-10-31T00:12:55.663Z,13.01
2022-10-31T00:13:56.030Z,12.96
2022-10-31T00:14:55.687Z,12.93
2022-10-31T00:15:55.722Z,12.91
2022-10-31T00:16:55.754Z,12.92
2022-10-31T00:17:55.926Z,12.89
2022-10-31T00:18:56.012Z,12.88
2022-10-31T00:19:55.647Z,12.83
2022-10-31T00:20:55.593Z,12.77
2022-10-31T00:21:55.599Z,12.74
2022-10-31T00:22:55.578Z,12.83
2022-10-31T00:23:56.024Z,12.8
2022-10-31T00:24:55.659Z,12.76
2022-10-31T00:25:55.584Z,12.73
2022-10-31T00:26:55.715Z,12.74
2022-10-31T00:27:59.003Z,12.76
2022-10-31T00:28:55.949Z,12.79
2022-10-31T00:29:55.789Z,12.88
2022-10-31T00:30:55.786Z,12.87
2022-10-31T00:31:55.747Z,12.83
2022-10-31T00:32:55.616Z,12.82
2022-10-31T00:33:55.983Z,12.79
2022-10-31T00:34:55.674Z,12.77
2022-10-31T00:35:55.759Z,12.75
2022-10-31T00:36:55.675Z,12.75
2022-10-31T00:37:55.582Z,12.72
2022-10-31T00:39:01.628Z,12.67
2022-10-31T00:39:55.662Z,12.65
2022-10-31T00:40:55.610Z,12.62
2022-10-31T00:41:55.562Z,12.62
2022-10-31T00:42:55.616Z,12.61
2022-10-31T00:43:56.016Z,12.67
2022-10-31T00:44:55.692Z,12.68
2022-10-31T00:45:58.357Z,12.71
2022-10-31T00:46:55.679Z,12.73
2022-10-31T00:47:55.568Z,12.77
2022-10-31T00:48:56.023Z,12.82
2022-10-31T00:49:58.582Z,12.84
2022-10-31T00:50:55.738Z,12.85
2022-10-31T00:51:55.755Z,12.85
2022-10-31T00:52:55.721Z,12.88
2022-10-31T00:53:55.936Z,12.87
2022-10-31T00:54:55.644Z,12.89
2022-10-31T00:55:55.705Z,12.92
2022-10-31T00:56:55.726Z,12.89
2022-10-31T00:57:55.797Z,12.88
2022-10-31T00:58:56.183Z,12.92
2022-10-31T00:59:55.768Z,12.91
2022-10-31T01:00:58.667Z,12.92
2022-10-31T01:01:55.956Z,12.94
2022-10-31T01:02:55.607Z,12.96
2022-10-31T01:03:56.064Z,12.98
2022-10-31T01:04:55.736Z,13.03
2022-10-31T01:05:55.601Z,13.04
2022-10-31T01:06:55.610Z,13.04
2022-10-31T01:07:55.733Z,13.06
2022-10-31T01:08:55.950Z,13.06
2022-10-31T01:09:55.707Z,13.1
2022-10-31T01:10:55.703Z,13.12
2022-10-31T01:11:58.795Z,13.14
2022-10-31T01:12:55.800Z,13.15
2022-10-31T01:13:55.944Z,13.15
2022-10-31T01:14:55.786Z,13.12
2022-10-31T01:15:55.742Z,13.15
2022-10-31T01:16:55.792Z,13.1
2022-10-31T01:17:55.900Z,13.1
2022-10-31T01:18:56.065Z,13.1
2022-10-31T01:19:55.588Z,13.06
2022-10-31T01:20:55.602Z,13.03
2022-10-31T01:21:55.590Z,13.02
2022-10-31T01:22:58.709Z,13.03
2022-10-31T01:23:55.950Z,13.04
2022-10-31T01:24:55.725Z,13.04
2022-10-31T01:25:55.686Z,13.02
2022-10-31T01:26:55.577Z,13.01
2022-10-31T01:27:55.583Z,13.02
2022-10-31T01:28:55.993Z,13.02
2022-10-31T01:29:55.588Z,13.02
2022-10-31T01:30:55.592Z,13
2022-10-31T01:31:55.575Z,13.03
2022-10-31T01:32:55.568Z,12.93
2022-10-31T01:34:01.620Z,12.92
2022-10-31T01:34:55.668Z,12.91
2022-10-31T01:35:55.667Z,12.88
2022-10-31T01:36:55.672Z,12.89
2022-10-31T01:37:55.779Z,12.86
2022-10-31T01:38:55.935Z,12.85
2022-10-31T01:39:55.574Z,12.83
2022-10-31T01:40:55.601Z,12.8
2022-10-31T01:41:55.641Z,12.78
2022-10-31T01:42:55.690Z,12.77
2022-10-31T01:43:56.018Z,12.76
2022-10-31T01:44:58.701Z,12.79
2022-10-31T01:45:55.657Z,12.78
2022-10-31T01:46:55.712Z,12.74
2022-10-31T01:47:55.877Z,12.73
2022-10-31T01:48:56.016Z,12.73
2022-10-31T01:49:55.674Z,12.77
2022-10-31T01:50:55.592Z,12.77
2022-10-31T01:51:55.588Z,12.76
2022-10-31T01:52:55.696Z,12.8
2022-10-31T01:53:56.015Z,12.79
2022-10-31T01:54:55.639Z,12.83
2022-10-31T01:55:58.561Z,12.82
2022-10-31T01:56:55.824Z,12.83
2022-10-31T01:57:55.599Z,12.8
2022-10-31T01:58:56.008Z,12.74
2022-10-31T01:59:55.780Z,12.69
2022-10-31T02:00:55.803Z,12.77
2022-10-31T02:01:55.848Z,12.74
2022-10-31T02:02:55.596Z,12.69
2022-10-31T02:03:56.015Z,12.7
2022-10-31T02:04:55.778Z,12.68
2022-10-31T02:05:55.703Z,12.71
2022-10-31T02:06:58.620Z,12.63
2022-10-31T02:07:55.760Z,12.61
2022-10-31T02:08:56.035Z,12.56
2022-10-31T02:09:55.642Z,12.51
2022-10-31T02:10:55.593Z,12.47
2022-10-31T02:11:55.560Z,12.44
2022-10-31T02:12:55.591Z,12.44
2022-10-31T02:13:56.011Z,12.41
2022-10-31T02:14:55.807Z,12.36
2022-10-31T02:15:55.775Z,12.31
2022-10-31T02:16:55.725Z,12.28
2022-10-31T02:17:59.085Z,12.27
2022-10-31T02:18:55.931Z,12.3
2022-10-31T02:19:55.745Z,12.34
2022-10-31T02:20:55.767Z,12.38
2022-10-31T02:21:55.882Z,12.4
2022-10-31T02:22:55.673Z,12.44
2022-10-31T02:23:55.939Z,12.5
2022-10-31T02:24:55.589Z,12.51
2022-10-31T02:25:55.582Z,12.53
2022-10-31T02:26:55.710Z,12.48
2022-10-31T02:27:55.729Z,12.46
2022-10-31T02:29:01.620Z,12.45
2022-10-31T02:29:55.691Z,12.46
2022-10-31T02:30:55.722Z,12.46
2022-10-31T02:31:55.772Z,12.44
2022-10-31T02:32:55.694Z,12.47
2022-10-31T02:33:55.939Z,12.47
2022-10-31T02:34:55.555Z,12.49
2022-10-31T02:35:55.578Z,12.5
2022-10-31T02:36:55.590Z,12.48
2022-10-31T02:37:55.566Z,12.49
2022-10-31T02:38:56.020Z,12.45
2022-10-31T02:39:58.721Z,12.46
2022-10-31T02:40:55.754Z,12.5
2022-10-31T02:41:55.650Z,12.53
2022-10-31T02:42:55.729Z,12.52
2022-10-31T02:43:55.946Z,12.52
2022-10-31T02:44:55.680Z,12.54
2022-10-31T02:45:55.672Z,12.57
2022-10-31T02:46:55.731Z,12.61
2022-10-31T02:47:58.205Z,12.65
2022-10-31T02:48:55.977Z,12.7
2022-10-31T02:49:55.649Z,12.69
2022-10-31T02:50:58.595Z,12.7
2022-10-31T02:51:55.778Z,12.7
2022-10-31T02:52:55.700Z,12.71
2022-10-31T02:53:56.098Z,12.67
2022-10-31T02:54:55.688Z,12.62
2022-10-31T02:55:55.583Z,12.65
2022-10-31T02:56:55.595Z,12.67
2022-10-31T02:57:55.587Z,12.69
2022-10-31T02:58:56.011Z,12.62
2022-10-31T02:59:55.693Z,12.61
2022-10-31T03:00:55.678Z,12.58
2022-10-31T03:01:58.808Z,12.58
2022-10-31T03:02:55.766Z,12.56
2022-10-31T03:03:56.018Z,12.56
2022-10-31T03:04:55.789Z,12.55
2022-10-31T03:05:55.589Z,12.5
2022-10-31T03:06:55.673Z,12.51
2022-10-31T03:07:55.594Z,12.5
2022-10-31T03:08:56.065Z,12.48
2022-10-31T03:09:55.758Z,12.46
2022-10-31T03:10:55.652Z,12.46
2022-10-31T03:11:55.734Z,12.48
2022-10-31T03:12:58.625Z,12.51
2022-10-31T03:13:55.989Z,12.53
2022-10-31T03:14:55.764Z,12.53
2022-10-31T03:15:55.603Z,12.54
2022-10-31T03:16:55.703Z,12.54
2022-10-31T03:17:55.784Z,12.53
2022-10-31T03:18:55.948Z,12.51
2022-10-31T03:19:55.703Z,12.52
2022-10-31T03:20:55.803Z,12.51
2022-10-31T03:21:55.664Z,12.52
2022-10-31T03:22:55.695Z,12.55
2022-10-31T03:24:01.585Z,12.57
2022-10-31T03:24:55.638Z,12.6
2022-10-31T03:25:55.686Z,12.65
2022-10-31T03:26:55.738Z,12.64
2022-10-31T03:27:55.837Z,12.65
2022-10-31T03:28:56.019Z,12.66
2022-10-31T03:29:55.716Z,12.67
2022-10-31T03:30:55.588Z,12.66
2022-10-31T03:31:55.660Z,12.65
2022-10-31T03:32:55.720Z,12.66
2022-10-31T03:33:55.947Z,12.68
2022-10-31T03:34:58.567Z,12.67
2022-10-31T03:35:55.645Z,12.65
2022-10-31T03:36:55.637Z,12.63
2022-10-31T03:37:55.576Z,12.65
2022-10-31T03:38:56.053Z,12.66
2022-10-31T03:39:55.650Z,12.65
2022-10-31T03:40:55.572Z,12.62
2022-10-31T03:41:55.557Z,12.64
2022-10-31T03:42:55.598Z,12.64
2022-10-31T03:43:56.026Z,12.62
2022-10-31T03:44:57.826Z,12.58
2022-10-31T03:45:58.711Z,12.56
2022-10-31T03:46:55.681Z,12.54
2022-10-31T03:47:55.669Z,12.52
2022-10-31T03:48:56.144Z,12.5
2022-10-31T03:49:55.769Z,12.47
2022-10-31T03:50:55.725Z,12.45
2022-10-31T03:51:55.582Z,12.45
2022-10-31T03:52:55.702Z,12.48
2022-10-31T03:53:56.020Z,12.46
2022-10-31T03:54:55.653Z,12.46
2022-10-31T03:55:55.568Z,12.51
2022-10-31T03:56:58.687Z,12.52
2022-10-31T03:57:55.760Z,12.52
2022-10-31T03:58:55.702Z,12.53
2022-10-31T03:59:55.588Z,12.48
2022-10-31T04:00:55.596Z,12.46
2022-10-31T04:01:55.743Z,12.42
2022-10-31T04:02:55.593Z,12.38
2022-10-31T04:03:56.046Z,12.34
2022-10-31T04:04:55.758Z,12.36
2022-10-31T04:05:55.680Z,12.3
2022-10-31T04:06:55.653Z,12.3
2022-10-31T04:07:58.689Z,12.32
2022-10-31T04:08:55.963Z,12.33
2022-10-31T04:09:55.760Z,12.34
2022-10-31T04:10:55.565Z,12.34
2022-10-31T04:11:55.582Z,12.32
2022-10-31T04:12:55.596Z,12.3
2022-10-31T04:13:56.099Z,12.29
2022-10-31T04:14:55.581Z,12.3
2022-10-31T04:15:55.586Z,12.26
2022-10-31T04:16:55.565Z,12.21
2022-10-31T04:17:55.593Z,12.16
2022-10-31T04:19:01.598Z,12.17
2022-10-31T04:19:55.774Z,12.17
2022-10-31T04:20:55.708Z,12.15
2022-10-31T04:21:55.577Z,12.14
2022-10-31T04:22:55.719Z,12.09
2022-10-31T04:23:55.959Z,12.06
2022-10-31T04:24:55.577Z,11.98
2022-10-31T04:25:55.673Z,11.95
2022-10-31T04:26:55.692Z,11.95
2022-10-31T04:27:55.792Z,11.95
2022-10-31T04:28:55.945Z,11.96
2022-10-31T04:29:58.718Z,11.97
2022-10-31T04:30:55.777Z,11.95
2022-10-31T04:31:55.697Z,11.91
2022-10-31T04:32:55.718Z,11.91
2022-10-31T04:33:56.077Z,11.93
2022-10-31T04:34:55.647Z,11.91
2022-10-31T04:35:55.597Z,11.91
2022-10-31T04:36:55.697Z,11.91
2022-10-31T04:37:55.572Z,11.95
2022-10-31T04:38:55.999Z,11.97
2022-10-31T04:39:55.748Z,12
2022-10-31T04:40:58.583Z,12
2022-10-31T04:41:55.675Z,11.97
2022-10-31T04:42:55.728Z,11.93
2022-10-31T04:43:55.953Z,11.94
2022-10-31T04:44:55.789Z,11.93
2022-10-31T04:45:55.645Z,11.96
2022-10-31T04:46:55.737Z,11.96
2022-10-31T04:47:55.701Z,11.94
2022-10-31T04:48:56.029Z,11.96
2022-10-31T04:49:55.778Z,11.93
2022-10-31T04:50:55.761Z,11.91
2022-10-31T04:51:58.581Z,11.91
2022-10-31T04:52:55.771Z,11.89
2022-10-31T04:53:55.779Z,11.89
2022-10-31T04:54:55.577Z,11.89
2022-10-31T04:55:55.591Z,11.88
2022-10-31T04:56:55.666Z,11.9
2022-10-31T04:57:55.618Z,11.89
2022-10-31T04:58:55.718Z,11.88
2022-10-31T04:59:55.695Z,11.87
2022-10-31T05:00:55.662Z,11.9
2022-10-31T05:01:55.738Z,11.93
2022-10-31T05:02:59.028Z,11.93
2022-10-31T05:03:55.940Z,11.95
2022-10-31T05:04:55.780Z,11.98
2022-10-31T05:05:55.637Z,11.97
2022-10-31T05:06:55.644Z,12
2022-10-31T05:07:55.694Z,12.02
2022-10-31T05:08:55.950Z,12.09
2022-10-31T05:09:55.623Z,12.11
2022-10-31T05:10:58.171Z,12.14
2022-10-31T05:11:55.670Z,12.16
2022-10-31T05:12:55.731Z,12.2
2022-10-31T05:14:01.596Z,12.22
2022-10-31T05:14:55.670Z,12.22
2022-10-31T05:15:55.698Z,12.22
2022-10-31T05:16:55.597Z,12.17
2022-10-31T05:17:55.605Z,12.16
2022-10-31T05:18:56.023Z,12.17
2022-10-31T05:19:55.574Z,12.22
2022-10-31T05:20:55.585Z,12.21
2022-10-31T05:21:55.589Z,12.24
2022-10-31T05:22:55.571Z,12.24
2022-10-31T05:23:56.025Z,12.24
2022-10-31T05:24:58.701Z,12.25
2022-10-31T05:25:55.769Z,12.23
2022-10-31T05:26:55.656Z,12.22
2022-10-31T05:27:55.724Z,12.26
2022-10-31T05:28:55.948Z,12.24
2022-10-31T05:29:55.877Z,12.2
2022-10-31T05:30:55.724Z,12.15
2022-10-31T05:31:55.735Z,12.12
2022-10-31T05:32:55.789Z,12.11
2022-10-31T05:33:56.153Z,12.09
2022-10-31T05:34:55.603Z,12.08
2022-10-31T05:35:58.713Z,12.08
2022-10-31T05:36:55.775Z,12.07
2022-10-31T05:37:55.598Z,12.07
2022-10-31T05:38:56.031Z,12.09
2022-10-31T05:39:55.661Z,12.09
2022-10-31T05:40:55.641Z,12.09
2022-10-31T05:41:55.558Z,12.12
2022-10-31T05:42:55.610Z,12.11
2022-10-31T05:43:56.026Z,12.1
2022-10-31T05:44:55.647Z,12.08
2022-10-31T05:45:55.735Z,12.08
2022-10-31T05:46:58.588Z,12.11
2022-10-31T05:47:55.699Z,12.13
2022-10-31T05:48:58.720Z,12.13
2022-10-31T05:49:55.706Z,12.13
2022-10-31T05:50:55.591Z,12.11
2022-10-31T05:51:55.698Z,12.11
2022-10-31T05:52:55.601Z,12.13
2022-10-31T05:53:56.026Z,12.15
2022-10-31T05:54:55.683Z,12.14
2022-10-31T05:55:55.579Z,12.14
2022-10-31T05:56:55.732Z,12.21
2022-10-31T05:57:59.163Z,12.22
2022-10-31T05:58:55.953Z,12.17
2022-10-31T05:59:55.763Z,12.17
2022-10-31T06:00:55.690Z,12.19
2022-10-31T06:01:55.775Z,12.22
2022-10-31T06:02:55.970Z,12.25
2022-10-31T06:03:55.996Z,12.28
2022-10-31T06:04:55.678Z,12.31
2022-10-31T06:05:55.679Z,12.35
2022-10-31T06:06:55.696Z,12.35
2022-10-31T06:07:55.590Z,12.36
2022-10-31T06:09:01.640Z,12.34
2022-10-31T06:09:55.765Z,12.38
2022-10-31T06:10:55.770Z,12.4
2022-10-31T06:11:55.750Z,12.41
2022-10-31T06:12:55.679Z,12.41
2022-10-31T06:13:55.622Z,12.41
2022-10-31T06:14:55.599Z,12.4
2022-10-31T06:15:55.688Z,12.42
2022-10-31T06:16:55.739Z,12.45
2022-10-31T06:17:55.737Z,12.45
2022-10-31T06:18:55.960Z,12.45
2022-10-31T06:19:58.565Z,12.45
2022-10-31T06:20:55.808Z,12.47
2022-10-31T06:21:55.747Z,12.47
2022-10-31T06:22:55.670Z,12.46
2022-10-31T06:23:55.957Z,12.5
2022-10-31T06:24:55.696Z,12.51
2022-10-31T06:25:55.562Z,12.55
2022-10-31T06:26:55.574Z,12.53
2022-10-31T06:27:55.579Z,12.5
2022-10-31T06:28:58.755Z,12.47
2022-10-31T06:29:55.795Z,12.44
2022-10-31T06:30:58.582Z,12.45
2022-10-31T06:31:55.682Z,12.45
2022-10-31T06:32:55.680Z,12.38
2022-10-31T06:33:55.949Z,12.41
2022-10-31T06:34:55.787Z,12.42
2022-10-31T06:35:55.724Z,12.43
2022-10-31T06:36:55.720Z,12.45
2022-10-31T06:37:55.692Z,12.46
2022-10-31T06:38:55.695Z,12.45
2022-10-31T06:39:55.786Z,12.5
2022-10-31T06:40:55.661Z,12.54
2022-10-31T06:41:58.690Z,12.59
2022-10-31T06:42:55.752Z,12.66
2022-10-31T06:43:55.598Z,12.7
2022-10-31T06:44:55.731Z,12.78
2022-10-31T06:45:55.758Z,12.8
2022-10-31T06:46:55.675Z,12.85
2022-10-31T06:48:15.682Z,12.86
2022-10-31T06:48:56.020Z,12.91
2022-10-31T06:49:55.684Z,12.92
2022-10-31T06:50:59.527Z,12.95
2022-10-31T06:51:55.711Z,13
2022-10-31T06:52:58.770Z,13.05
2022-10-31T06:53:55.996Z,13.1
2022-10-31T06:54:55.737Z,13.17
2022-10-31T06:55:55.716Z,13.22
2022-10-31T06:56:55.717Z,13.28
2022-10-31T06:57:58.870Z,13.33
2022-10-31T06:58:55.945Z,13.33
2022-10-31T06:59:55.582Z,13.31
2022-10-31T07:00:55.613Z,13.33
2022-10-31T07:01:55.880Z,13.34
2022-10-31T07:02:55.761Z,13.43
2022-10-31T07:04:01.638Z,13.43
2022-10-31T07:04:55.776Z,13.41
2022-10-31T07:05:55.790Z,13.45
2022-10-31T07:06:55.756Z,13.51
2022-10-31T07:07:55.687Z,13.5
2022-10-31T07:08:55.945Z,13.53
2022-10-31T07:09:55.594Z,13.55
2022-10-31T07:10:55.591Z,13.58
2022-10-31T07:11:55.599Z,13.62
2022-10-31T07:12:55.725Z,13.6
2022-10-31T07:13:55.949Z,13.58
2022-10-31T07:14:58.561Z,13.54
2022-10-31T07:15:55.671Z,13.5
2022-10-31T07:16:55.594Z,13.46
2022-10-31T07:17:55.683Z,13.43
2022-10-31T07:18:56.071Z,13.41
2022-10-31T07:19:55.783Z,13.38
2022-10-31T07:20:55.709Z,13.38
2022-10-31T07:21:55.722Z,13.36
2022-10-31T07:22:55.707Z,13.29
2022-10-31T07:23:56.015Z,13.33
2022-10-31T07:24:55.662Z,13.32
2022-10-31T07:25:58.716Z,13.34
2022-10-31T07:26:55.824Z,13.25
2022-10-31T07:27:55.674Z,13.24
2022-10-31T07:28:56.020Z,13.27
2022-10-31T07:29:55.769Z,13.29
2022-10-31T07:30:55.729Z,13.32
2022-10-31T07:31:55.726Z,13.32
2022-10-31T07:32:55.629Z,13.32
2022-10-31T07:33:56.026Z,13.34
2022-10-31T07:34:55.716Z,13.38
2022-10-31T07:35:55.719Z,13.41
2022-10-31T07:36:58.582Z,13.42
2022-10-31T07:37:55.718Z,13.44
2022-10-31T07:38:56.076Z,13.45
2022-10-31T07:39:55.790Z,13.51
2022-10-31T07:40:55.789Z,13.54
2022-10-31T07:41:55.745Z,13.56
2022-10-31T07:42:55.730Z,13.64
2022-10-31T07:43:56.085Z,13.67
2022-10-31T07:44:57.659Z,13.63
2022-10-31T07:45:55.704Z,13.6
2022-10-31T07:46:55.681Z,13.62
2022-10-31T07:47:59.153Z,13.7
2022-10-31T07:48:56.165Z,13.76
2022-10-31T07:49:55.763Z,13.77
2022-10-31T07:50:55.769Z,13.82
2022-10-31T07:51:55.683Z,13.95
2022-10-31T07:52:55.717Z,14.06
2022-10-31T07:53:55.945Z,14.15
2022-10-31T07:54:55.723Z,14.35
2022-10-31T07:55:55.661Z,14.4
2022-10-31T07:56:55.562Z,14.47
2022-10-31T07:57:55.651Z,14.53
2022-10-31T07:59:01.607Z,14.61
2022-10-31T07:59:55.664Z,14.7
2022-10-31T08:00:55.826Z,14.81
2022-10-31T08:01:55.583Z,14.9
2022-10-31T08:02:55.651Z,14.86
2022-10-31T08:03:55.954Z,14.89
2022-10-31T08:04:58.575Z,14.89
2022-10-31T08:05:55.727Z,14.92
2022-10-31T08:06:55.773Z,15.03
2022-10-31T08:07:55.694Z,15.13
2022-10-31T08:08:55.989Z,15.19
2022-10-31T08:09:58.613Z,15.25
2022-10-31T08:10:55.719Z,15.37
2022-10-31T08:11:55.746Z,15.36
2022-10-31T08:12:56.429Z,15.32
2022-10-31T08:13:55.944Z,15.23
2022-10-31T08:14:55.801Z,15.23
2022-10-31T08:15:55.679Z,15.24
2022-10-31T08:16:55.594Z,15.3
2022-10-31T08:17:55.724Z,15.35
2022-10-31T08:18:55.953Z,15.43
2022-10-31T08:19:55.659Z,15.5
2022-10-31T08:20:58.592Z,15.52
2022-10-31T08:21:55.668Z,15.58
2022-10-31T08:22:55.721Z,15.63
2022-10-31T08:23:55.959Z,15.56
2022-10-31T08:24:55.743Z,15.51
2022-10-31T08:25:55.688Z,15.43
2022-10-31T08:26:55.593Z,15.36
2022-10-31T08:27:55.716Z,15.3
2022-10-31T08:28:55.994Z,15.27
2022-10-31T08:29:55.790Z,15.27
2022-10-31T08:30:55.687Z,15.19
2022-10-31T08:31:58.707Z,15.15
2022-10-31T08:32:55.699Z,15.09
2022-10-31T08:33:56.089Z,15
2022-10-31T08:34:55.680Z,14.98
2022-10-31T08:35:55.693Z,14.94
2022-10-31T08:36:55.695Z,14.91
2022-10-31T08:37:55.725Z,14.86
2022-10-31T08:39:01.459Z,14.84
2022-10-31T08:39:55.678Z,14.74
2022-10-31T08:40:55.732Z,14.68
2022-10-31T08:41:55.580Z,14.69
2022-10-31T08:42:58.596Z,14.67
2022-10-31T08:43:55.959Z,14.65
2022-10-31T08:44:55.811Z,14.64
2022-10-31T08:45:55.669Z,14.64
2022-10-31T08:46:55.594Z,14.64
2022-10-31T08:47:55.591Z,14.66
2022-10-31T08:48:55.955Z,14.74
2022-10-31T08:49:55.653Z,14.76
2022-10-31T08:50:55.781Z,14.78
2022-10-31T08:51:55.796Z,14.72
2022-10-31T08:53:04.871Z,14.67
2022-10-31T08:54:01.650Z,14.67
2022-10-31T08:54:55.674Z,14.69
2022-10-31T08:55:55.676Z,14.68
2022-10-31T08:56:55.698Z,14.67
2022-10-31T08:57:55.760Z,14.68
2022-10-31T08:58:55.952Z,14.71
2022-10-31T08:59:55.584Z,14.74
2022-10-31T09:00:55.777Z,14.84
2022-10-31T09:01:55.820Z,14.85
2022-10-31T09:02:55.602Z,14.89
2022-10-31T09:03:55.952Z,14.93
2022-10-31T09:04:58.721Z,14.94
2022-10-31T09:05:55.771Z,14.99
2022-10-31T09:07:20.595Z,14.94
2022-10-31T09:07:55.568Z,14.97
2022-10-31T09:08:56.131Z,15.01
2022-10-31T09:09:55.682Z,15.04
2022-10-31T09:10:55.602Z,15.1
2022-10-31T09:11:55.585Z,15.18
2022-10-31T09:12:55.701Z,15.18
2022-10-31T09:13:56.037Z,15.22
2022-10-31T09:14:55.752Z,15.25
2022-10-31T09:15:58.573Z,15.25
2022-10-31T09:16:55.672Z,15.22
2022-10-31T09:17:55.724Z,15.24
2022-10-31T09:18:56.070Z,15.24
2022-10-31T09:19:55.661Z,15.24
2022-10-31T09:20:55.588Z,15.23
2022-10-31T09:21:55.577Z,15.23
2022-10-31T09:22:55.569Z,15.3
2022-10-31T09:23:56.031Z,15.37
2022-10-31T09:24:55.798Z,15.33
2022-10-31T09:25:55.659Z,15.28
2022-10-31T09:26:58.699Z,15.37
2022-10-31T09:27:55.669Z,15.46
2022-10-31T09:28:56.070Z,15.54
2022-10-31T09:29:55.661Z,15.57
2022-10-31T09:30:55.715Z,15.63
2022-10-31T09:31:55.654Z,15.68
2022-10-31T09:32:55.667Z,15.79
2022-10-31T09:33:56.023Z,15.9
2022-10-31T09:34:55.788Z,15.95
2022-10-31T09:35:55.696Z,16.01
2022-10-31T09:36:55.587Z,16.06
2022-10-31T09:37:59.045Z,16.11
2022-10-31T09:38:55.998Z,16.14
2022-10-31T09:39:55.690Z,16.17
2022-10-31T09:40:55.710Z,16.33
2022-10-31T09:41:57.078Z,16.38
2022-10-31T09:42:55.669Z,16.49
2022-10-31T09:43:55.994Z,16.55
2022-10-31T09:44:55.665Z,16.58
2022-10-31T09:45:55.797Z,16.66
2022-10-31T09:46:55.775Z,16.75
2022-10-31T09:47:55.568Z,16.88
2022-10-31T09:49:01.627Z,17.01
2022-10-31T09:49:55.870Z,17.09
2022-10-31T09:50:55.668Z,17.06
2022-10-31T09:51:55.652Z,16.98
2022-10-31T09:52:55.605Z,17.02
2022-10-31T09:53:56.125Z,17.12
2022-10-31T09:54:55.737Z,17.19
2022-10-31T09:55:55.732Z,17.26
2022-10-31T09:56:55.770Z,17.39
2022-10-31T09:57:55.683Z,17.54
2022-10-31T09:58:56.026Z,17.66
2022-10-31T09:59:55.592Z,17.62
2022-10-31T10:00:55.736Z,17.68
2022-10-31T10:01:55.777Z,17.78
2022-10-31T10:02:55.691Z,17.89
2022-10-31T10:03:56.194Z,17.91
2022-10-31T10:04:58.720Z,17.89
2022-10-31T10:05:55.662Z,17.9
2022-10-31T10:06:55.656Z,17.94
2022-10-31T10:07:55.733Z,17.97
2022-10-31T10:08:55.950Z,17.96
2022-10-31T10:09:55.675Z,17.97
2022-10-31T10:10:55.586Z,18.01
2022-10-31T10:11:55.567Z,18.02
2022-10-31T10:12:55.714Z,18.01
2022-10-31T10:13:55.976Z,18.04
2022-10-31T10:14:55.662Z,17.98
2022-10-31T10:15:58.572Z,17.99
2022-10-31T10:16:55.695Z,18.03
2022-10-31T10:17:55.589Z,18.09
2022-10-31T10:18:56.070Z,18.11
2022-10-31T10:19:55.794Z,18.09
2022-10-31T10:20:55.772Z,18.09
2022-10-31T10:21:55.721Z,18.08
2022-10-31T10:22:55.598Z,18.04
2022-10-31T10:23:56.021Z,18.05
2022-10-31T10:24:55.658Z,18.06
2022-10-31T10:25:55.577Z,18.09
2022-10-31T10:26:58.589Z,18.11
2022-10-31T10:27:55.779Z,18.06
2022-10-31T10:28:55.948Z,18.11
2022-10-31T10:29:55.801Z,18.22
2022-10-31T10:30:55.777Z,18.3
2022-10-31T10:31:55.701Z,18.38
2022-10-31T10:32:55.574Z,18.45
2022-10-31T10:33:56.025Z,18.46
2022-10-31T10:34:55.671Z,18.48
2022-10-31T10:35:55.734Z,18.5
2022-10-31T10:36:55.800Z,18.47
2022-10-31T10:37:58.954Z,18.58
2022-10-31T10:38:55.961Z,18.72
2022-10-31T10:39:55.700Z,18.83
2022-10-31T10:40:55.599Z,18.73
2022-10-31T10:41:55.668Z,18.76
2022-10-31T10:42:55.746Z,18.82
2022-10-31T10:43:55.960Z,18.93
2022-10-31T10:44:55.706Z,19.02
2022-10-31T10:45:55.718Z,19.1
2022-10-31T10:46:55.596Z,19.18
2022-10-31T10:47:55.653Z,19.29
2022-10-31T10:49:01.626Z,19.39
2022-10-31T10:49:55.692Z,19.43
2022-10-31T10:50:55.706Z,19.37
2022-10-31T10:52:13.131Z,19.4
2022-10-31T10:52:55.703Z,19.32
2022-10-31T10:53:55.936Z,19.26
2022-10-31T10:54:55.660Z,19.21
2022-10-31T10:55:55.591Z,19.15
2022-10-31T10:56:55.578Z,19.18
2022-10-31T10:57:55.585Z,19.16
2022-10-31T10:58:56.026Z,19.18
2022-10-31T10:59:58.548Z,19.22
2022-10-31T11:00:55.821Z,19.3
2022-10-31T11:01:55.575Z,19.35
2022-10-31T11:02:55.593Z,19.38
2022-10-31T11:03:56.010Z,19.32
2022-10-31T11:04:55.677Z,19.33
2022-10-31T11:05:55.600Z,19.43
2022-10-31T11:06:55.633Z,19.4
2022-10-31T11:07:55.610Z,19.37
2022-10-31T11:08:56.013Z,19.49
2022-10-31T11:09:55.649Z,19.62
2022-10-31T11:10:58.657Z,19.63
2022-10-31T11:11:55.662Z,19.7
2022-10-31T11:12:55.698Z,19.87
2022-10-31T11:13:56.018Z,20
2022-10-31T11:14:55.760Z,20.1
2022-10-31T11:15:55.686Z,20.14
2022-10-31T11:16:55.595Z,20.21
2022-10-31T11:17:55.726Z,20.29
2022-10-31T11:18:55.987Z,20.3
2022-10-31T11:19:55.757Z,20.35
2022-10-31T11:20:55.593Z,20.34
2022-10-31T11:21:58.563Z,20.37
2022-10-31T11:22:55.697Z,20.42
2022-10-31T11:23:56.021Z,20.42
2022-10-31T11:24:55.679Z,20.41
2022-10-31T11:25:55.716Z,20.39
2022-10-31T11:26:55.709Z,20.37
2022-10-31T11:27:55.702Z,20.41
2022-10-31T11:28:56.017Z,20.41
2022-10-31T11:30:00.654Z,20.37
2022-10-31T11:30:55.600Z,20.29
2022-10-31T11:31:55.581Z,20.32
2022-10-31T11:32:58.883Z,20.21
2022-10-31T11:33:55.946Z,19.97
2022-10-31T11:34:55.683Z,19.88
2022-10-31T11:35:58.960Z,19.87
2022-10-31T11:36:55.761Z,19.88
2022-10-31T11:37:55.575Z,19.96
2022-10-31T11:38:55.943Z,20.08
2022-10-31T11:39:55.584Z,20.15
2022-10-31T11:40:55.590Z,20.19
2022-10-31T11:41:55.593Z,20.28
2022-10-31T11:42:55.571Z,20.32
2022-10-31T11:44:01.605Z,20.29
2022-10-31T11:44:55.702Z,20.18
2022-10-31T11:45:55.735Z,20.1
2022-10-31T11:46:55.639Z,20.09
2022-10-31T11:47:59.542Z,19.99
2022-10-31T11:48:56.015Z,19.87
2022-10-31T11:49:55.700Z,19.76
2022-10-31T11:50:55.607Z,19.68
2022-10-31T11:51:55.579Z,19.77
2022-10-31T11:54:04.678Z,19.95
2022-10-31T11:55:04.247Z,20.01
2022-10-31T11:56:04.247Z,20.11
2022-10-31T11:57:04.225Z,20.14
2022-10-31T11:58:04.715Z,20.07
2022-10-31T11:59:10.372Z,20.02
2022-10-31T12:00:04.526Z,20.05
2022-10-31T12:01:04.366Z,20.04
2022-10-31T12:02:04.410Z,19.89
2022-10-31T12:03:04.479Z,19.89
2022-10-31T12:04:04.685Z,20
2022-10-31T12:05:04.218Z,20.11
2022-10-31T12:06:04.244Z,20.18
2022-10-31T12:07:04.337Z,20.29
2022-10-31T12:08:04.774Z,20.29
2022-10-31T12:09:04.724Z,20.34
2022-10-31T12:10:07.302Z,20.43
2022-10-31T12:11:04.464Z,20.48
2022-10-31T12:12:04.296Z,20.61
2022-10-31T12:13:04.478Z,20.73
2022-10-31T12:14:04.699Z,20.72
2022-10-31T12:15:04.291Z,20.87
2022-10-31T12:16:05.382Z,21.1
2022-10-31T12:17:04.382Z,21.3
2022-10-31T12:18:04.441Z,21.49
2022-10-31T12:19:04.794Z,21.56
2022-10-31T12:20:04.451Z,21.49
2022-10-31T12:21:07.330Z,21.26
2022-10-31T12:22:04.326Z,21.3
2022-10-31T12:23:04.567Z,21.39
2022-10-31T12:24:04.608Z,21.52
2022-10-31T12:25:04.361Z,21.58
2022-10-31T12:26:04.221Z,21.64
2022-10-31T12:27:04.242Z,21.65
2022-10-31T12:28:04.241Z,21.63
2022-10-31T12:29:04.678Z,21.56
2022-10-31T12:30:04.287Z,21.59
2022-10-31T12:31:04.246Z,21.54
2022-10-31T12:32:07.240Z,21.54
2022-10-31T12:33:04.319Z,21.52
2022-10-31T12:34:04.673Z,21.46
2022-10-31T12:35:04.426Z,21.36
2022-10-31T12:36:04.366Z,21.27
2022-10-31T12:37:04.356Z,21.35
2022-10-31T12:38:04.271Z,21.42
2022-10-31T12:39:04.676Z,21.27
2022-10-31T12:40:04.356Z,21.17
2022-10-31T12:41:04.240Z,21.24
2022-10-31T12:42:04.236Z,21.32
2022-10-31T12:43:07.256Z,21.32
2022-10-31T12:44:04.682Z,21.33
2022-10-31T12:45:04.298Z,21.42
2022-10-31T12:46:04.318Z,21.47
2022-10-31T12:47:04.323Z,21.53
2022-10-31T12:48:04.430Z,21.72
2022-10-31T12:49:04.819Z,21.76
2022-10-31T12:50:04.265Z,21.75
2022-10-31T12:51:04.221Z,21.7
2022-10-31T12:52:04.244Z,21.78
2022-10-31T12:53:04.652Z,21.91
2022-10-31T12:54:10.381Z,21.99
2022-10-31T12:55:04.356Z,22
2022-10-31T12:56:04.331Z,22.03
2022-10-31T12:57:04.436Z,22.07